Time;durP1;ratioP1;P1;durP2;ratioP2;P2;SDS_P1;SDS_P2;PMS_P1;PMS_P2;Temp;Humidity;BMP_temperature;BMP_pressure;BME280_temperature;BME280_humidity;BME280_pressure;Samples;Min_cycle;Max_cycle;Signal;HPM_P1;HPM_P2
2021/03/21 00:01:50;;;;;;;4.00;1.65;;;8.10;84.80;;;;;;4978988;28;20030;-76
2021/03/21 00:04:16;;;;;;;4.03;1.77;;;8.10;85.00;;;;;;4979139;28;20031;-76
2021/03/21 00:06:43;;;;;;;4.15;2.03;;;8.10;85.10;;;;;;4961822;28;20023;-76
2021/03/21 00:09:11;;;;;;;4.35;2.15;;;8.10;85.10;;;;;;4978537;28;20146;-76
2021/03/21 00:11:37;;;;;;;3.17;1.67;;;8.10;85.10;;;;;;4978874;28;20054;-76
2021/03/21 00:14:04;;;;;;;3.30;1.50;;;8.10;85.20;;;;;;4961136;28;20019;-75
2021/03/21 00:16:30;;;;;;;3.00;1.80;;;8.10;85.30;;;;;;4978793;28;20030;-76
2021/03/21 00:18:56;;;;;;;3.15;1.50;;;8.10;85.50;;;;;;4978042;28;20105;-75
2021/03/21 00:21:22;;;;;;;3.08;1.55;;;8.00;85.50;;;;;;4978997;28;20026;-75
2021/03/21 00:23:48;;;;;;;3.30;1.60;;;8.10;85.70;;;;;;4978384;28;20027;-77
2021/03/21 00:26:14;;;;;;;2.85;1.52;;;8.00;85.80;;;;;;4979277;28;20037;-75
2021/03/21 00:28:41;;;;;;;4.50;2.45;;;8.00;85.90;;;;;;4961498;28;20035;-75
2021/03/21 00:31:09;;;;;;;3.78;1.55;;;8.00;86.10;;;;;;4978352;28;20054;-75
2021/03/21 00:33:36;;;;;;;4.60;1.92;;;8.00;86.10;;;;;;4961409;28;20027;-75
2021/03/21 00:36:04;;;;;;;4.45;2.10;;;8.00;86.10;;;;;;4977940;28;20065;-75
2021/03/21 00:38:36;;;;;;;4.32;2.17;;;8.00;86.20;;;;;;4961536;28;20027;-76
2021/03/21 00:41:02;;;;;;;;;;;8.00;86.30;;;;;;4978751;28;20031;-75
2021/03/21 00:43:29;;;;;;;7.07;2.47;;;7.90;86.30;;;;;;4961489;28;19910;-75
2021/03/21 00:45:54;;;;;;;4.22;2.55;;;7.90;86.50;;;;;;4978262;28;20059;-75
2021/03/21 00:48:30;;;;;;;6.85;1.98;;;7.90;86.40;;;;;;4978747;28;20502;-75
2021/03/21 00:50:56;;;;;;;5.68;2.00;;;7.90;86.40;;;;;;4960694;28;20022;-76
2021/03/21 00:53:22;;;;;;;4.60;2.25;;;7.90;86.50;;;;;;4976252;28;20384;-75
2021/03/21 00:55:48;;;;;;;5.43;2.45;;;7.90;87.20;;;;;;4958263;28;20090;-75
2021/03/21 00:58:15;;;;;;;3.92;2.17;;;7.90;86.80;;;;;;4957413;28;20105;-75
2021/03/21 01:00:43;;;;;;;4.18;1.88;;;7.90;86.80;;;;;;4975329;28;20030;-75
2021/03/21 01:03:10;;;;;;;4.50;1.80;;;7.90;86.80;;;;;;4974924;28;20471;-75
2021/03/21 01:05:39;;;;;;;2.83;1.58;;;7.90;86.80;;;;;;4958177;28;20074;-75
2021/03/21 01:08:14;;;;;;;4.88;1.75;;;7.90;86.80;;;;;;4974900;28;20102;-76
2021/03/21 01:10:40;;;;;;;2.30;1.25;;;7.90;86.90;;;;;;4958000;28;20132;-76
2021/03/21 01:13:06;;;;;;;3.53;1.45;;;7.90;87.00;;;;;;4975134;28;20027;-76
2021/03/21 01:15:32;;;;;;;2.92;1.50;;;7.90;87.00;;;;;;4958095;28;20022;-76
2021/03/21 01:17:58;;;;;;;1.95;1.27;;;7.90;87.10;;;;;;4974719;28;20070;-76
2021/03/21 01:20:28;;;;;;;4.55;1.83;;;7.90;87.10;;;;;;4975321;28;20034;-74
2021/03/21 01:22:53;;;;;;;2.45;1.30;;;7.90;87.10;;;;;;4974756;28;20070;-74
2021/03/21 01:25:27;;;;;;;2.75;1.85;;;7.90;87.00;;;;;;4975167;28;20049;-75
2021/03/21 01:27:57;;;;;;;1.77;1.25;;;7.90;86.90;;;;;;4956873;28;20157;-75
2021/03/21 01:30:25;;;;;;;4.78;1.50;;;7.90;86.90;;;;;;4957740;28;20476;-75
2021/03/21 01:32:52;;;;;;;2.67;1.50;;;7.90;86.90;;;;;;4974778;28;20027;-75
2021/03/21 01:35:19;;;;;;;2.97;1.10;;;7.90;86.80;;;;;;4974524;28;20026;-75
2021/03/21 01:37:44;;;;;;;1.80;1.08;;;7.90;86.80;;;;;;4974999;28;20023;-75
2021/03/21 01:40:14;;;;;;;1.05;0.70;;;7.90;86.90;;;;;;4974294;28;20090;-75
2021/03/21 01:42:42;;;;;;;1.05;0.90;;;7.90;86.80;;;;;;4974899;28;20513;-76
2021/03/21 01:45:38;;;;;;;1.73;1.00;;;7.90;86.90;;;;;;4974301;28;20033;-76
2021/03/21 01:48:32;;;;;;;1.80;0.93;;;7.90;87.00;;;;;;4956727;28;20023;-76
2021/03/21 01:51:01;;;;;;;0.80;0.80;;;7.90;87.00;;;;;;4956824;28;20113;-76
2021/03/21 01:53:30;;;;;;;1.63;1.00;;;7.80;87.10;;;;;;4957286;28;20443;-76
2021/03/21 01:55:56;;;;;;;2.15;1.00;;;7.80;87.10;;;;;;4974051;28;20027;-76
2021/03/21 01:58:24;;;;;;;1.80;0.93;;;7.80;87.20;;;;;;4974306;28;20074;-76
2021/03/21 02:00:54;;;;;;;6.18;1.20;;;7.80;87.20;;;;;;4974176;28;20050;-75
2021/03/21 02:03:20;;;;;;;1.40;1.05;;;7.80;87.30;;;;;;4956663;28;20089;-75
2021/03/21 02:05:47;;;;;;;2.00;0.98;;;7.80;87.20;;;;;;4982970;28;20030;-75
2021/03/21 02:08:45;;;;;;;0.85;0.80;;;7.80;87.20;;;;;;4992739;28;20018;-75
2021/03/21 02:11:22;;;;;;;1.15;0.80;;;7.90;87.10;;;;;;4985272;28;20054;-75
2021/03/21 02:14:00;;;;;;;1.75;0.75;;;7.80;87.20;;;;;;4993686;28;20119;-75
2021/03/21 02:16:54;;;;;;;1.00;0.90;;;7.70;87.30;;;;;;4993460;28;20026;-74
2021/03/21 02:19:57;;;;;;;2.72;1.15;;;7.70;87.20;;;;;;4992680;28;20429;-76
2021/03/21 02:22:32;;;;;;;1.35;1.00;;;7.70;87.20;;;;;;4993452;28;20031;-75
2021/03/21 02:25:28;;;;;;;0.63;0.63;;;7.70;87.30;;;;;;4975402;28;20030;-76
2021/03/21 02:28:19;;;;;;;1.98;0.98;;;7.70;87.20;;;;;;4975874;28;20027;-76
2021/03/21 02:30:48;;;;;;;1.85;0.98;;;7.80;87.30;;;;;;4993266;28;20030;-75
2021/03/21 02:33:30;;;;;;;1.42;0.90;;;7.70;87.20;;;;;;4992716;28;20069;-76
2021/03/21 02:36:01;;;;;;;2.70;1.00;;;7.80;87.20;;;;;;4993350;28;20080;-76
2021/03/21 02:38:32;;;;;;;1.27;1.20;;;7.80;87.20;;;;;;4975900;28;20026;-75
2021/03/21 02:41:06;;;;;;;1.73;1.02;;;7.80;87.10;;;;;;4992794;28;20019;-78
2021/03/21 02:43:40;;;;;;;1.90;1.10;;;7.80;87.00;;;;;;4993290;28;20026;-75
2021/03/21 02:46:11;;;;;;;3.72;1.25;;;7.90;87.00;;;;;;4975039;28;20033;-75
2021/03/21 02:48:45;;;;;;;1.77;1.35;;;7.90;86.90;;;;;;4975761;28;20026;-75
2021/03/21 02:51:28;;;;;;;2.00;1.23;;;7.90;86.90;;;;;;4975008;28;20038;-76
2021/03/21 02:53:59;;;;;;;2.72;1.45;;;7.90;87.10;;;;;;4993018;28;20066;-75
2021/03/21 02:56:28;;;;;;;2.45;1.45;;;7.80;87.40;;;;;;4992951;28;20027;-75
2021/03/21 02:59:05;;;;;;;4.25;1.75;;;7.80;87.40;;;;;;4975089;28;20554;-75
2021/03/21 03:01:35;;;;;;;2.70;1.45;;;7.80;87.50;;;;;;4975448;28;20041;-80
2021/03/21 03:04:09;;;;;;;3.05;1.60;;;7.90;87.50;;;;;;4974842;28;20038;-76
2021/03/21 03:06:48;;;;;;;4.32;2.10;;;7.80;87.40;;;;;;4975424;28;20034;-75
2021/03/21 03:09:23;;;;;;;2.70;1.50;;;7.90;87.50;;;;;;4991978;28;20053;-76
2021/03/21 03:11:57;;;;;;;4.35;1.90;;;7.90;87.40;;;;;;4975303;28;20491;-76
2021/03/21 03:14:36;;;;;;;5.28;1.85;;;7.90;87.40;;;;;;4974634;28;20033;-75
2021/03/21 03:17:18;;;;;;;2.78;1.67;;;7.90;87.50;;;;;;4991391;28;20029;-76
2021/03/21 03:20:05;;;;;;;2.58;1.70;;;7.80;87.70;;;;;;4992429;28;20166;-76
2021/03/21 03:22:55;;;;;;;2.60;1.70;;;7.80;88.10;;;;;;4975192;28;20054;-75
2021/03/21 03:25:37;;;;;;;5.28;1.95;;;7.70;88.50;;;;;;4991909;28;20038;-76
2021/03/21 03:28:30;;;;;;;3.33;1.80;;;7.70;88.70;;;;;;4992046;28;20084;-76
2021/03/21 03:31:17;;;;;;;5.90;2.22;;;7.60;88.80;;;;;;4957806;28;20437;-76
2021/03/21 03:33:43;;;;;;;5.55;2.00;;;7.60;88.80;;;;;;4975049;28;20042;-76
2021/03/21 03:36:15;;;;;;;2.53;1.70;;;7.60;88.70;;;;;;4991739;28;20143;-76
2021/03/21 03:38:45;;;;;;;4.00;2.10;;;7.70;88.70;;;;;;4992461;28;20027;-76
2021/03/21 03:41:34;;;;;;;2.92;1.67;;;7.80;88.60;;;;;;4991746;28;20029;-76
2021/03/21 03:44:40;;;;;;;3.13;1.60;;;7.80;88.60;;;;;;4974883;28;20129;-75
2021/03/21 03:47:15;;;;;;;3.90;1.85;;;7.80;88.40;;;;;;4991671;28;20018;-74
2021/03/21 03:49:44;;;;;;;3.83;2.22;;;7.80;88.30;;;;;;4974537;28;20064;-75
2021/03/21 03:52:37;;;;;;;5.55;2.30;;;7.80;88.30;;;;;;4973781;28;20049;-75
2021/03/21 03:55:16;;;;;;;4.50;2.38;;;7.90;88.50;;;;;;4974677;28;20030;-76
2021/03/21 03:57:54;;;;;;;5.57;2.42;;;7.80;88.50;;;;;;4992106;28;20093;-75
2021/03/21 04:00:29;;;;;;;5.00;2.13;;;7.80;88.60;;;;;;4991819;28;20030;-75
2021/03/21 04:03:06;;;;;;;5.95;2.53;;;7.80;88.60;;;;;;4992089;28;20030;-75
2021/03/21 04:05:58;;;;;;;3.88;2.20;;;7.80;88.80;;;;;;4974942;28;20359;-75
2021/03/21 04:08:52;;;;;;;3.90;1.92;;;7.80;88.90;;;;;;4991596;28;20065;-75
2021/03/21 04:11:35;;;;;;;5.10;2.15;;;7.80;89.00;;;;;;4991559;28;20026;-74
2021/03/21 04:14:11;;;;;;;7.28;2.85;;;7.80;89.20;;;;;;4992264;28;20077;-75
2021/03/21 04:16:46;;;;;;;4.20;2.40;;;7.70;89.40;;;;;;4992198;28;20030;-75
2021/03/21 04:19:13;;;;;;;10.23;2.65;;;7.70;89.50;;;;;;4991017;28;20534;-75
2021/03/21 04:21:46;;;;;;;4.28;2.58;;;7.70;89.50;;;;;;4991901;28;20031;-75
2021/03/21 04:24:18;;;;;;;4.07;2.30;;;7.70;89.50;;;;;;4973596;28;20031;-75
2021/03/21 04:26:46;;;;;;;;;;;7.70;89.60;;;;;;4974852;28;20027;-76
2021/03/21 04:29:33;;;;;;;4.68;2.00;;;7.70;89.40;;;;;;4989041;28;19906;-74
2021/03/21 04:32:05;;;;;;;5.60;1.85;;;7.70;89.50;;;;;;4986540;28;20052;-75
2021/03/21 04:34:32;;;;;;;4.95;2.17;;;7.70;89.70;;;;;;4995633;28;20053;-75
2021/03/21 04:36:58;;;;;;;4.82;2.17;;;7.60;89.70;;;;;;4994180;28;20410;-75
2021/03/21 04:39:32;;;;;;;6.65;2.20;;;7.70;89.90;;;;;;4994861;28;20390;-75
2021/03/21 04:42:12;;;;;;;5.97;2.92;;;7.70;90.00;;;;;;4995498;28;20026;-75
2021/03/21 04:44:46;;;;;;;8.73;2.33;;;7.70;90.00;;;;;;4995702;28;20022;-75
2021/03/21 04:47:26;;;;;;;5.25;2.53;;;7.70;90.00;;;;;;4994520;28;20022;-75
2021/03/21 04:49:58;;;;;;;7.00;2.10;;;7.60;90.10;;;;;;4995377;28;20506;-75
2021/03/21 04:52:32;;;;;;;7.10;2.72;;;7.70;90.10;;;;;;4994846;28;20018;-74
2021/03/21 04:55:00;;;;;;;6.10;2.85;;;7.70;90.00;;;;;;4993871;28;20336;-73
2021/03/21 04:57:39;;;;;;;6.95;2.97;;;7.70;90.00;;;;;;4994396;28;20046;-75
2021/03/21 05:00:29;;;;;;;5.82;2.33;;;7.80;90.00;;;;;;4994026;28;20033;-75
2021/03/21 05:03:24;;;;;;;8.18;3.28;;;7.70;90.00;;;;;;4994511;28;20092;-75
2021/03/21 05:05:57;;;;;;;6.97;3.28;;;7.70;90.10;;;;;;4986080;28;20058;-74
2021/03/21 05:08:29;;;;;;;8.20;3.25;;;7.70;90.20;;;;;;4994393;28;20109;-75
2021/03/21 05:11:01;;;;;;;7.55;3.67;;;7.70;90.20;;;;;;4994988;28;20018;-74
2021/03/21 05:13:43;;;;;;;5.70;2.28;;;7.70;90.30;;;;;;4994027;28;20057;-74
2021/03/21 05:16:17;;;;;;;8.30;2.97;;;7.70;90.30;;;;;;4993657;28;20018;-75
2021/03/21 05:18:49;;;;;;;6.22;2.83;;;7.70;90.30;;;;;;4993642;28;20018;-75
2021/03/21 05:21:21;;;;;;;7.80;2.72;;;7.70;90.30;;;;;;4994271;28;20457;-75
2021/03/21 05:24:12;;;;;;;5.78;2.40;;;7.70;90.30;;;;;;4993027;28;20041;-74
2021/03/21 05:26:57;;;;;;;5.93;2.53;;;7.70;90.20;;;;;;4995249;28;20023;-74
2021/03/21 05:29:53;;;;;;;6.32;1.90;;;7.70;90.20;;;;;;4992696;28;20034;-75
2021/03/21 05:32:21;;;;;;;7.50;2.15;;;7.70;90.10;;;;;;4992646;28;20042;-76
2021/03/21 05:34:49;;;;;;;4.28;2.08;;;7.80;90.10;;;;;;4993281;28;20022;-75
2021/03/21 05:37:26;;;;;;;5.82;2.30;;;7.80;90.10;;;;;;4992495;28;20466;-75
2021/03/21 05:40:02;;;;;;;5.90;2.20;;;7.80;90.10;;;;;;4994150;28;20463;-75
2021/03/21 05:42:52;;;;;;;4.25;2.33;;;7.80;90.10;;;;;;4994167;28;20034;-75
2021/03/21 05:46:09;;;;;;;8.88;2.45;;;7.80;90.10;;;;;;4993592;28;20018;-76
2021/03/21 05:48:57;;;;;;;4.15;1.88;;;7.80;90.00;;;;;;4971052;28;20038;-75
2021/03/21 05:51:32;;;;;;;8.52;1.90;;;7.80;90.00;;;;;;4993621;28;20026;-75
2021/03/21 05:54:38;;;;;;;4.78;2.25;;;7.80;90.00;;;;;;4992644;28;20426;-75
2021/03/21 05:57:28;;;;;;;5.82;1.67;;;7.90;89.90;;;;;;4994322;28;20033;-75
2021/03/21 05:59:59;;;;;;;3.30;1.38;;;7.90;89.90;;;;;;4991598;28;20042;-76
2021/03/21 06:03:03;;;;;;;2.47;1.50;;;7.80;89.80;;;;;;4992207;28;20117;-74
2021/03/21 06:05:50;;;;;;;1.42;0.93;;;7.90;89.70;;;;;;4993334;28;20064;-75
2021/03/21 06:08:56;;;;;;;2.05;1.00;;;7.90;89.70;;;;;;4991956;28;20418;-76
2021/03/21 06:11:58;;;;;;;4.35;1.10;;;7.90;89.50;;;;;;4991961;28;20046;-75
2021/03/21 06:14:29;;;;;;;;;;;7.90;89.50;;;;;;4973575;28;20030;-75
2021/03/21 06:17:04;;;;;;;1.00;0.80;;;7.80;89.40;;;;;;4993720;28;19913;-75
2021/03/21 06:19:59;;;;;;;1.85;0.85;;;7.90;89.40;;;;;;4991723;28;20038;-76
2021/03/21 06:23:08;;;;;;;0.68;0.63;;;7.90;89.30;;;;;;4991777;28;20022;-75
2021/03/21 06:26:01;;;;;;;1.60;0.60;;;7.90;89.20;;;;;;4991290;28;20029;-75
2021/03/21 06:28:53;;;;;;;3.10;1.25;;;7.80;89.30;;;;;;4993036;28;20018;-75
2021/03/21 06:31:37;;;;;;;1.15;0.77;;;7.80;89.20;;;;;;4992920;28;20026;-75
2021/03/21 06:34:02;;;;;;;2.22;1.63;;;7.90;89.20;;;;;;4992964;28;20387;-75
2021/03/21 06:36:46;;;;;;;2.05;0.90;;;7.90;89.20;;;;;;4991388;28;20026;-74
2021/03/21 06:39:23;;;;;;;3.33;1.15;;;7.90;89.20;;;;;;4991825;28;20106;-76
2021/03/21 06:41:55;;;;;;;0.50;0.50;;;7.90;89.30;;;;;;4991947;28;20037;-75
2021/03/21 06:44:33;;;;;;;2.70;0.75;;;7.90;89.30;;;;;;4991306;28;20033;-76
2021/03/21 06:47:02;;;;;;;0.88;0.60;;;7.90;89.40;;;;;;4991881;28;20027;-76
2021/03/21 06:49:39;;;;;;;1.88;0.80;;;7.90;89.30;;;;;;4992133;28;20531;-75
2021/03/21 06:52:19;;;;;;;3.33;0.90;;;7.90;89.30;;;;;;4992157;28;20030;-75
2021/03/21 06:54:51;;;;;;;1.88;0.80;;;7.90;89.20;;;;;;4975908;28;20034;-76
2021/03/21 06:57:44;;;;;;;2.47;0.88;;;7.90;89.30;;;;;;4955532;28;20027;-76
2021/03/21 07:00:43;;;;;;;4.75;0.95;;;7.90;89.70;;;;;;4984777;28;20069;-75
2021/03/21 07:03:31;;;;;;;0.50;0.50;;;7.90;89.10;;;;;;4973308;28;20402;-75
2021/03/21 07:06:27;;;;;;;2.25;0.52;;;7.90;89.10;;;;;;4974883;28;20018;-75
2021/03/21 07:09:05;;;;;;;4.43;1.15;;;7.90;89.00;;;;;;4994880;28;20086;-75
2021/03/21 07:11:55;;;;;;;1.92;0.80;;;7.90;89.00;;;;;;4975102;28;20114;-75
2021/03/21 07:14:55;;;;;;;2.63;0.77;;;7.90;89.10;;;;;;4987364;28;20034;-75
2021/03/21 07:17:49;;;;;;;2.72;0.65;;;7.90;89.10;;;;;;4955215;28;20360;-77
2021/03/21 07:20:39;;;;;;;1.52;1.20;;;7.90;89.20;;;;;;4973386;28;20037;-75
2021/03/21 07:23:29;;;;;;;3.42;0.68;;;7.90;89.10;;;;;;4955775;28;20049;-75
2021/03/21 07:26:09;;;;;;;0.88;0.73;;;8.00;89.00;;;;;;4973201;28;20022;-76
2021/03/21 07:29:06;;;;;;;1.00;0.70;;;8.00;88.90;;;;;;4972495;28;20027;-76
2021/03/21 07:31:59;;;;;;;0.60;0.60;;;8.10;88.60;;;;;;4972416;28;20027;-76
2021/03/21 07:34:47;;;;;;;1.50;1.40;;;8.10;88.40;;;;;;4987136;28;20050;-76
2021/03/21 07:37:33;;;;;;;1.13;0.70;;;8.20;88.30;;;;;;4964163;28;20044;-76
2021/03/21 07:40:14;;;;;;;1.35;0.75;;;8.30;88.00;;;;;;4994024;28;20040;-75
2021/03/21 07:43:10;;;;;;;5.63;1.13;;;8.30;87.90;;;;;;4990915;28;20109;-76
2021/03/21 07:45:50;;;;;;;4.90;0.70;;;8.30;87.50;;;;;;4990695;28;20027;-76
2021/03/21 07:48:30;;;;;;;0.77;0.70;;;8.30;87.30;;;;;;4973069;28;20027;-75
2021/03/21 07:51:21;;;;;;;1.75;0.70;;;8.30;86.90;;;;;;4990285;28;20046;-76
2021/03/21 07:54:01;;;;;;;2.17;1.67;;;8.40;86.80;;;;;;4984870;28;20053;-76
2021/03/21 07:56:53;;;;;;;0.65;0.57;;;8.40;86.50;;;;;;4989684;28;20399;-76
2021/03/21 07:59:26;;;;;;;3.33;0.90;;;8.50;86.90;;;;;;4972676;28;20069;-75
2021/03/21 08:01:53;;;;;;;1.85;0.63;;;8.50;85.80;;;;;;4971127;28;20151;-74
2021/03/21 08:04:49;;;;;;;2.78;0.77;;;8.60;85.70;;;;;;4994354;28;20030;-77
2021/03/21 08:07:17;;;;;;;1.92;1.08;;;8.70;85.60;;;;;;4989846;28;20118;-74
2021/03/21 08:09:44;;;;;;;0.40;0.40;;;8.80;85.20;;;;;;4975586;28;20521;-73
2021/03/21 08:12:34;;;;;;;0.63;0.60;;;8.80;85.00;;;;;;4993370;28;20050;-76
2021/03/21 08:15:10;;;;;;;2.58;0.82;;;8.90;84.80;;;;;;4974088;28;20022;-75
2021/03/21 08:17:41;;;;;;;13.55;1.50;;;8.90;84.50;;;;;;4971784;28;20026;-75
2021/03/21 08:20:19;;;;;;;1.60;0.77;;;8.90;84.20;;;;;;4978201;28;20542;-75
2021/03/21 08:22:45;;;;;;;3.92;1.10;;;8.90;83.70;;;;;;4977615;28;20034;-77
2021/03/21 08:25:22;;;;;;;8.77;1.10;;;8.90;84.00;;;;;;4995810;28;20105;-75
2021/03/21 08:27:50;;;;;;;3.60;1.00;;;8.90;83.90;;;;;;4993571;28;20073;-75
2021/03/21 08:30:16;;;;;;;1.70;0.98;;;8.90;83.80;;;;;;4992746;28;20061;-74
2021/03/21 08:33:02;;;;;;;2.10;0.95;;;9.00;83.40;;;;;;4994595;28;20022;-75
2021/03/21 08:35:29;;;;;;;2.83;1.15;;;9.10;82.70;;;;;;4977124;28;20026;-74
2021/03/21 08:38:04;;;;;;;2.85;0.88;;;9.00;82.20;;;;;;4995423;28;20034;-74
2021/03/21 08:40:36;;;;;;;6.18;1.35;;;9.00;81.60;;;;;;4994914;28;20105;-75
2021/03/21 08:43:21;;;;;;;3.33;0.95;;;9.10;81.40;;;;;;4995362;28;20030;-75
2021/03/21 08:46:21;;;;;;;2.20;1.17;;;9.10;81.20;;;;;;4989783;28;20027;-74
2021/03/21 08:49:19;;;;;;;4.78;1.13;;;9.20;80.50;;;;;;4990744;28;20356;-74
2021/03/21 08:51:46;;;;;;;4.88;2.05;;;9.20;80.30;;;;;;4975844;28;20038;-74
2021/03/21 08:54:19;;;;;;;5.40;2.47;;;9.20;80.00;;;;;;4994673;28;20034;-74
2021/03/21 08:57:07;;;;;;;3.38;1.27;;;9.20;79.80;;;;;;4983751;28;20374;-75
2021/03/21 08:59:42;;;;;;;3.83;1.20;;;9.30;79.40;;;;;;4994195;28;20054;-77
2021/03/21 09:02:16;;;;;;;2.65;1.08;;;9.30;78.90;;;;;;4995027;28;20026;-76
2021/03/21 09:04:45;;;;;;;3.25;1.08;;;9.30;78.80;;;;;;4994683;28;20026;-77
2021/03/21 09:07:29;;;;;;;3.17;1.55;;;9.30;78.60;;;;;;4977513;28;20030;-76
2021/03/21 09:10:12;;;;;;;3.08;1.15;;;9.30;78.10;;;;;;4994826;28;20161;-76
2021/03/21 09:12:43;;;;;;;1.45;1.20;;;9.30;77.90;;;;;;4976977;28;20077;-76
2021/03/21 09:15:23;;;;;;;11.13;1.52;;;9.30;77.50;;;;;;4993970;28;20038;-77
2021/03/21 09:18:10;;;;;;;3.88;1.73;;;9.30;76.90;;;;;;4993757;28;20027;-76
2021/03/21 09:20:38;;;;;;;2.13;1.65;;;9.50;76.70;;;;;;4993755;28;20485;-76
2021/03/21 09:23:31;;;;;;;4.30;1.45;;;9.50;75.80;;;;;;4980092;28;20039;-77
2021/03/21 09:25:58;;;;;;;8.27;1.92;;;9.40;75.00;;;;;;4974847;28;20030;-77
2021/03/21 09:28:26;;;;;;;8.68;2.05;;;9.40;74.50;;;;;;4993547;28;20057;-77
2021/03/21 09:30:53;;;;;;;10.57;2.15;;;9.50;74.90;;;;;;4993063;28;20062;-78
2021/03/21 09:33:34;;;;;;;6.63;2.05;;;9.50;74.70;;;;;;4992805;28;20121;-78
2021/03/21 09:36:23;;;;;;;4.43;1.20;;;9.60;74.50;;;;;;4993145;28;20049;-78
2021/03/21 09:39:00;;;;;;;3.90;1.13;;;9.60;74.10;;;;;;4976818;28;20373;-77
2021/03/21 09:41:28;;;;;;;5.13;1.70;;;9.60;74.00;;;;;;4977291;28;20049;-77
2021/03/21 09:44:00;;;;;;;6.05;1.83;;;9.60;74.00;;;;;;4992884;28;20030;-78
2021/03/21 09:46:49;;;;;;;5.35;1.73;;;9.60;73.90;;;;;;4984019;28;20057;-78
2021/03/21 09:49:33;;;;;;;3.45;1.08;;;9.60;72.70;;;;;;4976257;28;20470;-78
2021/03/21 09:52:13;;;;;;;4.57;1.48;;;9.60;72.80;;;;;;4980308;28;20042;-78
2021/03/21 09:54:45;;;;;;;5.53;1.83;;;9.60;72.60;;;;;;4992823;28;20098;-77
2021/03/21 09:57:37;;;;;;;3.05;1.40;;;9.60;72.30;;;;;;4993383;28;20021;-78
2021/03/21 10:00:09;;;;;;;2.97;1.85;;;9.60;72.30;;;;;;4988177;28;20125;-78
2021/03/21 10:02:45;;;;;;;3.70;1.85;;;9.70;71.90;;;;;;4975689;28;20019;-79
2021/03/21 10:05:22;;;;;;;3.38;1.77;;;9.70;71.20;;;;;;4976123;28;20061;-77
2021/03/21 10:07:50;;;;;;;5.93;1.45;;;9.90;71.30;;;;;;4992851;28;20040;-77
2021/03/21 10:10:25;;;;;;;6.10;2.10;;;9.90;70.90;;;;;;4993425;28;20022;-77
2021/03/21 10:12:51;;;;;;;7.45;2.00;;;10.00;70.30;;;;;;4975243;28;20018;-78
2021/03/21 10:15:24;;;;;;;3.90;1.52;;;9.90;69.40;;;;;;4993310;28;20026;-77
2021/03/21 10:17:52;;;;;;;6.47;1.38;;;10.00;69.80;;;;;;5002698;28;20029;-77
2021/03/21 10:20:20;;;;;;;6.25;1.23;;;10.00;69.70;;;;;;4975338;28;20034;-78
2021/03/21 10:22:51;;;;;;;7.38;1.38;;;10.10;69.70;;;;;;4956055;28;20015;-77
2021/03/21 10:25:17;;;;;;;7.72;2.00;;;10.20;69.50;;;;;;4976975;28;20053;-77
2021/03/21 10:27:48;;;;;;;2.22;1.25;;;10.20;68.90;;;;;;4991867;28;20438;-78
2021/03/21 10:30:19;;;;;;;1.77;1.08;;;10.20;68.90;;;;;;4975528;28;20034;-78
2021/03/21 10:33:00;;;;;;;7.13;2.40;;;10.20;68.20;;;;;;4992727;28;20030;-77
2021/03/21 10:35:28;;;;;;;6.13;1.17;;;10.20;67.90;;;;;;4975845;28;20077;-78
2021/03/21 10:38:05;;;;;;;2.88;1.23;;;10.20;68.10;;;;;;4992299;28;20645;-77
2021/03/21 10:40:31;;;;;;;4.60;1.02;;;10.40;67.80;;;;;;4975881;28;20382;-78
2021/03/21 10:43:00;;;;;;;3.30;1.05;;;10.40;67.40;;;;;;4974562;28;20034;-77
2021/03/21 10:45:35;;;;;;;3.83;1.45;;;10.40;67.30;;;;;;4993144;28;20026;-75
2021/03/21 10:48:07;;;;;;;4.03;1.20;;;10.40;67.70;;;;;;4992726;28;20451;-76
2021/03/21 10:50:33;;;;;;;3.45;1.13;;;10.40;67.90;;;;;;4992553;28;20393;-76
2021/03/21 10:53:10;;;;;;;7.47;1.20;;;10.50;67.80;;;;;;4992285;28;20030;-76
2021/03/21 10:55:40;;;;;;;7.03;1.52;;;10.50;67.40;;;;;;4992636;28;20085;-75
2021/03/21 10:58:35;;;;;;;7.78;1.75;;;10.50;67.30;;;;;;4992052;28;20026;-80
2021/03/21 11:01:27;;;;;;;5.30;1.08;;;10.50;67.30;;;;;;4975449;28;20092;-81
2021/03/21 11:04:03;;;;;;;8.13;1.20;;;10.60;67.40;;;;;;4972425;28;20045;-84
2021/03/21 11:06:46;;;;;;;2.83;1.40;;;10.60;66.80;;;;;;4992558;28;20390;-81
2021/03/21 11:09:18;;;;;;;3.88;1.40;;;10.70;66.70;;;;;;4993535;28;20019;-81
2021/03/21 11:11:49;;;;;;;5.05;1.65;;;10.70;66.60;;;;;;4990131;28;20030;-81
2021/03/21 11:14:20;;;;;;;7.78;1.55;;;10.70;66.60;;;;;;4991062;28;20033;-83
2021/03/21 11:17:02;;;;;;;3.85;1.23;;;10.60;66.30;;;;;;4990312;28;20027;-83
2021/03/21 11:19:33;;;;;;;5.80;2.10;;;10.60;66.60;;;;;;4990621;28;20027;-82
2021/03/21 11:21:59;;;;;;;4.43;1.70;;;10.60;66.60;;;;;;4990163;28;20134;-84
2021/03/21 11:24:32;;;;;;;3.72;1.20;;;10.60;66.60;;;;;;4990430;28;20257;-83
2021/03/21 11:27:00;;;;;;;12.15;1.45;;;10.60;65.70;;;;;;4991257;28;20064;-83
2021/03/21 11:29:39;;;;;;;6.85;1.25;;;10.60;65.60;;;;;;4990127;28;20022;-84
2021/03/21 11:32:31;;;;;;;5.80;1.40;;;10.70;65.10;;;;;;4973781;28;20050;-84
2021/03/21 11:35:07;;;;;;;6.07;1.90;;;10.90;64.40;;;;;;4970935;28;20038;-85
2021/03/21 11:37:39;;;;;;;5.25;1.27;;;11.00;64.20;;;;;;4990828;28;20049;-84
2021/03/21 11:40:16;;;;;;;10.93;1.77;;;11.00;63.50;;;;;;4972952;28;20536;-84
2021/03/21 11:42:44;;;;;;;2.10;1.17;;;11.00;63.80;;;;;;4976767;28;20053;-84
2021/03/21 11:45:15;;;;;;;2.42;0.80;;;11.00;63.60;;;;;;4974429;28;20037;-82
2021/03/21 11:47:47;;;;;;;1.67;1.00;;;11.10;63.50;;;;;;4991064;28;20050;-84
2021/03/21 11:50:18;;;;;;;2.33;0.95;;;11.20;63.40;;;;;;4996278;28;20030;-82
2021/03/21 11:52:45;;;;;;;2.92;1.13;;;11.20;62.90;;;;;;4984518;28;20030;-82
2021/03/21 11:55:16;;;;;;;4.28;1.10;;;11.20;62.60;;;;;;5016440;28;20442;-83
2021/03/21 11:57:50;;;;;;;2.65;1.50;;;11.20;62.80;;;;;;5002238;28;20569;-80
2021/03/21 12:00:33;;;;;;;8.73;1.85;;;11.20;62.60;;;;;;5005429;28;20053;-81
2021/03/21 12:03:08;;;;;;;5.88;1.48;;;11.30;62.30;;;;;;5008046;28;20034;-84
2021/03/21 12:05:37;;;;;;;2.63;1.65;;;11.30;62.10;;;;;;4990784;28;20116;-82
2021/03/21 12:08:09;;;;;;;9.00;1.48;;;11.40;61.80;;;;;;4990360;28;20018;-84
2021/03/21 12:10:38;;;;;;;5.60;1.55;;;11.30;61.60;;;;;;4991549;28;20037;-83
2021/03/21 12:13:37;;;;;;;5.72;1.40;;;11.30;61.90;;;;;;4992961;28;20010;-87
2021/03/21 12:16:25;;;;;;;3.42;1.38;;;11.30;62.30;;;;;;4955260;28;20084;-82
2021/03/21 12:18:56;;;;;;;6.80;1.75;;;11.30;62.50;;;;;;5006332;28;20026;-83
2021/03/21 12:21:22;;;;;;;6.43;1.33;;;11.20;63.00;;;;;;5009790;28;20044;-77
2021/03/21 12:23:59;;;;;;;7.38;1.92;;;11.20;63.10;;;;;;4993157;28;20112;-77
2021/03/21 12:26:31;;;;;;;3.22;1.17;;;11.10;63.10;;;;;;5010841;28;20014;-77
2021/03/21 12:29:21;;;;;;;6.30;1.35;;;11.10;63.30;;;;;;4993411;28;20049;-77
2021/03/21 12:31:47;;;;;;;4.95;1.52;;;11.10;62.80;;;;;;5009934;28;20466;-77
2021/03/21 12:34:31;;;;;;;4.07;1.55;;;11.10;62.60;;;;;;5011559;28;20028;-77
2021/03/21 12:37:03;;;;;;;2.20;1.10;;;11.10;61.80;;;;;;4993234;28;20022;-78
2021/03/21 12:39:35;;;;;;;4.00;1.42;;;11.10;62.00;;;;;;5011236;28;20429;-77
2021/03/21 12:42:01;;;;;;;4.18;1.30;;;11.00;62.10;;;;;;5010813;28;20057;-76
2021/03/21 12:44:33;;;;;;;6.57;1.42;;;11.00;62.50;;;;;;5010995;28;20034;-77
2021/03/21 12:47:16;;;;;;;5.05;1.92;;;10.90;62.90;;;;;;4993010;28;20092;-77
2021/03/21 12:49:46;;;;;;;6.22;1.30;;;10.90;63.10;;;;;;5013110;28;20022;-78
2021/03/21 12:52:42;;;;;;;3.88;1.00;;;10.80;63.00;;;;;;4997317;28;20490;-77
2021/03/21 12:55:08;;;;;;;5.35;1.42;;;10.80;63.10;;;;;;4996577;28;20026;-76
2021/03/21 12:57:34;;;;;;;5.35;1.20;;;10.80;63.20;;;;;;5014590;28;20338;-77
2021/03/21 12:59:59;;;;;;;5.95;1.65;;;10.80;63.20;;;;;;4996098;28;20129;-77
2021/03/21 13:02:34;;;;;;;4.88;1.95;;;10.90;63.40;;;;;;5014563;28;20096;-77
2021/03/21 13:05:02;;;;;;;6.53;1.90;;;11.00;63.30;;;;;;5014020;28;20025;-76
2021/03/21 13:07:28;;;;;;;6.20;1.48;;;11.00;62.90;;;;;;5014527;28;20026;-77
2021/03/21 13:09:55;;;;;;;3.63;1.02;;;11.00;62.90;;;;;;5013948;28;20102;-77
2021/03/21 13:12:22;;;;;;;10.55;2.08;;;11.00;63.00;;;;;;4997184;28;20022;-77
2021/03/21 13:14:49;;;;;;;8.70;1.58;;;11.10;62.90;;;;;;5013387;28;20400;-77
2021/03/21 13:17:16;;;;;;;3.28;1.20;;;11.10;62.40;;;;;;5014146;28;20470;-77
2021/03/21 13:19:42;;;;;;;3.88;1.40;;;11.00;62.50;;;;;;5014215;28;20084;-77
2021/03/21 13:22:08;;;;;;;4.22;1.45;;;11.00;62.00;;;;;;5013693;28;20022;-77
2021/03/21 13:24:35;;;;;;;2.85;1.33;;;11.00;61.90;;;;;;5013957;28;20393;-77
2021/03/21 13:27:01;;;;;;;5.60;1.75;;;11.00;61.70;;;;;;5013573;28;20025;-77
2021/03/21 13:29:27;;;;;;;4.22;1.02;;;10.90;61.80;;;;;;5014192;28;20025;-77
2021/03/21 13:31:53;;;;;;;7.13;1.67;;;10.90;61.50;;;;;;5013228;28;20382;-77
2021/03/21 13:34:18;;;;;;;3.60;1.85;;;10.90;61.80;;;;;;5014198;28;20026;-76
2021/03/21 13:36:44;;;;;;;7.60;1.70;;;11.00;61.60;;;;;;5013996;28;20024;-76
2021/03/21 13:39:10;;;;;;;5.65;2.15;;;11.10;61.60;;;;;;4995756;28;20108;-77
2021/03/21 13:41:36;;;;;;;3.90;1.23;;;11.20;61.80;;;;;;5013500;28;20037;-76
2021/03/21 13:44:04;;;;;;;3.35;1.27;;;11.20;61.90;;;;;;4995235;28;20117;-76